.
WxDataArchive / Data Records for 2011-11-16
2011-11-15 November 2011 2011-11-17

Data Records for Wednesday, 16 November 2011

Time	Temp	Chill	HIndex	Humid	Dewpt	 Wind 	HiWind	WindDir	Rain 	Barom 
-----	----	-----	------	-----	-----	------	------	-------	-----	----- 
00:00	49.4	49.4	49.4	88	46.0	0	0	---	0.00	29.815 
00:05	49.1	49.1	49.1	89	46.0	0	0	---	0.00	29.815 
00:10	48.9	48.9	48.9	89	45.8	0	0	---	0.00	29.815 
00:15	48.8	48.8	48.8	90	46.0	0	0	---	0.00	29.819 
00:20	48.6	48.6	48.6	90	45.8	0	0	---	0.00	29.819 
00:25	48.3	48.3	48.3	90	45.5	0	0	---	0.00	29.819 
00:30	48.3	48.3	48.3	91	45.8	0	0	---	0.00	29.821 
00:35	48.3	48.3	48.3	91	45.8	0	0	---	0.00	29.821 
00:40	48.3	48.3	48.3	92	46.1	0	1	248	0.00	29.821 
00:45	48.5	48.5	48.5	92	46.3	0	0	---	0.00	29.821 
00:50	48.5	48.5	48.5	92	46.3	0	0	---	0.00	29.821 
00:55	48.6	48.6	48.6	92	46.4	0	0	---	0.00	29.821 
01:00	48.8	48.8	48.8	93	46.9	0	0	---	0.00	29.818 
01:05	48.9	48.9	48.9	93	47.0	0	0	---	0.00	29.818 
01:10	48.9	48.9	48.9	93	47.0	0	0	---	0.00	29.818 
01:15	48.8	48.8	48.8	93	46.9	0	0	---	0.00	29.812 
01:20	48.8	48.8	48.8	93	46.9	0	0	---	0.00	29.812 
01:25	48.6	48.6	48.6	93	46.7	0	0	---	0.00	29.812 
01:30	48.2	48.2	48.2	93	46.3	0	0	---	0.00	29.810 
01:35	47.9	47.9	47.9	93	46.0	0	0	---	0.00	29.810 
01:40	47.6	47.6	47.6	93	45.7	0	0	---	0.00	29.810 
01:45	47.3	47.3	47.3	93	45.4	0	0	---	0.00	29.808 
01:50	47.0	47.0	47.0	93	45.1	0	0	---	0.00	29.808 
01:55	46.7	46.7	46.7	93	44.8	0	0	---	0.00	29.808 
02:00	46.7	46.7	46.7	94	45.1	0	0	---	0.00	29.807 
02:05	46.7	46.7	46.7	94	45.1	0	0	---	0.00	29.807 
02:10	47.0	47.0	47.0	94	45.4	0	0	---	0.00	29.807 
02:15	47.4	47.4	47.4	94	45.8	0	0	---	0.00	29.813 
02:20	47.7	47.7	47.7	95	46.3	0	1	248	0.00	29.813 
02:25	48.2	48.2	48.2	95	46.8	0	1	248	0.00	29.813 
02:30	48.8	48.8	48.8	95	47.4	0	1	248	0.00	29.811 
02:35	48.9	48.9	48.9	95	47.5	0	1	248	0.00	29.811 
02:40	49.2	49.2	49.2	95	47.8	0	1	248	0.00	29.811 
02:45	49.5	49.5	49.5	95	48.1	0	3	248	0.00	29.816 
02:50	49.8	49.8	49.8	95	48.4	0	2	248	0.00	29.816 
02:55	50.1	50.1	50.1	95	48.7	0	2	248	0.00	29.816 
03:00	50.1	50.1	50.1	95	48.7	0	2	248	0.00	29.814 
03:05	50.2	50.2	50.2	95	48.8	0	2	248	0.00	29.814 
03:10	50.4	50.4	50.4	95	49.0	0	2	248	0.00	29.814 
03:15	50.5	50.5	50.5	95	49.1	1	3	248	0.00	29.820 
03:20	50.7	50.7	50.7	96	49.6	1	4	248	0.00	29.820 
03:25	50.8	50.8	50.8	95	49.4	1	4	248	0.00	29.820 
03:30	50.8	50.8	50.8	95	49.4	2	5	248	0.00	29.828 
03:35	50.8	50.8	50.8	95	49.4	2	5	270	0.00	29.828 
03:40	50.8	50.8	50.8	95	49.4	1	4	270	0.00	29.828 
03:45	50.8	50.8	50.8	95	49.4	1	3	270	0.00	29.826 
03:50	50.7	50.7	50.7	95	49.3	0	2	338	0.00	29.826 
03:55	50.7	50.7	50.7	95	49.3	1	2	338	0.00	29.826 
04:00	50.5	50.5	50.5	94	48.8	1	3	338	0.00	29.823 
04:05	50.5	50.5	50.5	94	48.8	1	2	338	0.00	29.823 
04:10	50.4	50.4	50.4	93	48.5	1	3	338	0.00	29.823 
04:15	50.4	50.4	50.4	93	48.5	1	3	338	0.00	29.815 
04:20	50.1	50.1	50.1	93	48.2	0	2	338	0.00	29.815 
04:25	49.9	49.9	49.9	92	47.7	0	2	338	0.00	29.815 
04:30	49.9	49.9	49.9	92	47.7	0	1	338	0.00	29.815 
04:35	49.8	49.8	49.8	92	47.6	0	2	338	0.00	29.815 
04:40	49.6	49.6	49.6	92	47.4	0	2	338	0.00	29.815 
04:45	49.5	49.5	49.5	92	47.3	0	2	338	0.00	29.827 
04:50	49.4	49.4	49.4	91	46.9	0	2	338	0.00	29.827 
04:55	49.2	49.2	49.2	91	46.7	1	3	338	0.00	29.827 
05:00	49.1	49.1	49.1	90	46.3	1	5	338	0.00	29.840 
05:05	48.9	48.9	48.9	89	45.8	1	5	270	0.00	29.840 
05:10	48.6	48.6	48.6	88	45.2	1	3	0	0.00	29.840 
05:15	48.6	48.6	48.6	86	44.6	1	3	338	0.00	29.847 
05:20	48.5	48.5	48.5	85	44.2	1	4	338	0.00	29.847 
05:25	48.3	48.3	48.3	84	43.7	1	3	338	0.00	29.847 
05:30	48.2	48.2	48.2	82	43.0	0	3	338	0.00	29.862 
05:35	48.0	48.0	48.0	80	42.1	0	2	338	0.00	29.862 
05:40	47.9	47.9	47.9	78	41.4	1	3	338	0.00	29.862 
05:45	47.9	47.9	47.9	77	41.0	0	2	270	0.00	29.863 
05:50	47.7	47.7	47.7	77	40.8	0	2	270	0.00	29.863 
05:55	47.6	47.6	47.6	77	40.8	1	3	338	0.00	29.863 
06:00	47.6	47.6	47.6	76	40.4	1	3	338	0.00	29.863 
06:05	47.6	47.6	47.6	75	40.1	1	3	315	0.00	29.863 
06:10	47.4	47.4	47.4	75	39.9	1	5	315	0.00	29.863 
06:15	47.3	47.3	47.3	74	39.4	0	3	292	0.00	29.866 
06:20	47.1	47.1	47.1	75	39.6	0	3	292	0.00	29.866 
06:25	47.1	47.1	47.1	75	39.6	1	3	315	0.00	29.866 
06:30	47.0	47.0	47.0	76	39.8	1	3	315	0.00	29.866 
06:35	46.8	46.8	46.8	76	39.6	1	4	315	0.00	29.866 
06:40	46.8	46.8	46.8	75	39.3	1	3	315	0.00	29.866 
06:45	46.7	46.7	46.7	76	39.5	1	3	315	0.00	29.874 
06:50	46.5	46.5	46.5	76	39.3	0	2	315	0.00	29.874 
06:55	46.4	46.4	46.4	77	39.6	0	3	315	0.00	29.874 
07:00	46.2	46.2	46.2	77	39.4	0	2	292	0.00	29.879 
07:05	46.1	46.1	46.1	77	39.3	1	4	292	0.00	29.879 
07:10	46.1	46.1	46.1	76	39.0	1	3	292	0.00	29.879 
07:15	46.0	46.0	46.0	75	38.5	1	3	315	0.00	29.885 
07:20	45.8	45.8	45.8	74	38.0	1	3	315	0.00	29.885 
07:25	45.7	45.7	45.7	74	37.9	1	3	315	0.00	29.885 
07:30	45.5	45.5	45.5	74	37.7	1	3	315	0.00	29.893 
07:35	45.4	45.4	45.4	74	37.6	0	2	315	0.00	29.893 
07:40	45.2	45.2	45.2	74	37.4	0	1	315	0.00	29.893 
07:45	45.2	45.2	45.2	74	37.4	0	2	315	0.00	29.895 
07:50	45.1	45.1	45.1	73	37.0	0	2	315	0.00	29.895 
07:55	45.1	45.1	45.1	73	37.0	0	1	315	0.00	29.895 
08:00	44.9	44.9	44.9	74	37.1	0	0	---	0.00	29.884 
08:05	44.6	44.6	44.6	73	36.5	0	1	315	0.00	29.884 
08:10	44.6	44.6	44.6	74	36.8	0	1	315	0.00	29.884 
08:15	44.5	44.5	44.5	74	36.7	0	1	315	0.00	29.883 
08:20	44.5	44.5	44.5	74	36.7	0	1	315	0.00	29.883 
08:25	44.5	44.5	44.5	73	36.4	0	1	315	0.00	29.883 
08:30	44.5	44.5	44.5	73	36.4	0	2	315	0.00	29.904 
08:35	44.5	44.5	44.5	73	36.4	0	1	315	0.00	29.904 
08:40	44.5	44.5	44.5	71	35.7	1	3	315	0.00	29.904 
08:45	44.5	44.5	44.5	71	35.7	0	3	315	0.00	29.912 
08:50	44.5	44.5	44.5	70	35.3	1	4	292	0.00	29.912 
08:55	44.5	44.5	44.5	69	35.0	1	4	292	0.00	29.912 
09:00	44.6	44.6	44.6	69	35.1	1	4	292	0.00	29.916 
09:05	44.6	44.6	44.6	69	35.1	1	4	270	0.00	29.916 
09:10	44.6	44.6	44.6	71	35.8	0	3	270	0.00	29.916 
09:15	44.8	44.8	44.8	72	36.3	0	2	315	0.00	29.927 
09:20	44.8	44.8	44.8	73	36.7	1	4	292	0.00	29.927 
09:25	44.8	44.8	44.8	73	36.7	1	4	270	0.00	29.927 
09:30	44.6	44.6	44.6	73	36.5	1	5	292	0.00	29.938 
09:35	44.5	44.5	44.5	70	35.3	2	5	315	0.00	29.938 
09:40	44.3	44.3	44.3	69	34.8	2	4	315	0.00	29.938 
09:45	44.3	44.3	44.3	69	34.8	1	4	270	0.00	29.945 
09:50	44.2	44.2	44.2	68	34.3	2	6	338	0.00	29.945 
09:55	44.1	44.1	44.1	67	33.9	2	5	292	0.00	29.945 
10:00	44.1	44.1	44.1	67	33.9	1	3	338	0.00	29.953 
10:05	44.1	44.1	44.1	66	33.5	1	3	315	0.00	29.953 
10:10	43.9	43.9	43.9	66	33.3	2	7	338	0.00	29.953 
10:15	43.9	43.9	43.9	65	32.9	2	5	315	0.00	29.956 
10:20	43.9	43.9	43.9	65	32.9	1	3	315	0.00	29.956 
10:25	43.8	43.8	43.8	63	32.0	3	6	315	0.00	29.956 
10:30	43.8	43.8	43.8	64	32.4	2	5	315	0.00	29.960 
10:35	43.8	43.8	43.8	63	32.0	2	4	315	0.00	29.960 
10:40	44.1	44.1	44.1	64	32.7	1	5	315	0.00	29.960 
10:45	44.3	44.3	44.3	64	32.9	1	3	338	0.00	29.963 
10:50	44.5	44.5	44.5	64	33.1	1	4	270	0.00	29.963 
10:55	44.5	44.5	44.5	63	32.7	2	5	292	0.00	29.963 
11:00	44.5	44.5	44.5	62	32.3	2	5	270	0.00	29.961 
11:05	44.2	44.2	44.2	61	31.6	3	9	315	0.00	29.961 
11:10	44.2	44.2	44.2	62	32.0	2	5	315	0.00	29.961 
11:15	44.6	44.6	44.6	59	31.2	2	6	270	0.00	29.965 
11:20	44.8	44.8	44.8	59	31.4	2	5	315	0.00	29.965 
11:25	44.9	44.9	44.9	59	31.5	1	4	338	0.00	29.965 
11:30	44.9	44.9	44.9	56	30.2	2	4	338	0.00	29.965 
11:35	44.6	44.6	44.6	52	28.1	2	5	315	0.00	29.965 
11:40	44.6	44.6	44.6	52	28.1	2	7	270	0.00	29.965 
11:45	44.6	44.6	44.6	49	26.6	2	5	338	0.00	29.964 
11:50	44.6	44.6	44.6	50	27.1	2	4	315	0.00	29.964 
11:55	44.6	44.6	44.6	49	26.6	2	5	270	0.00	29.964 
12:00	44.8	44.8	44.8	47	25.8	2	4	270	0.00	29.955 
12:05	44.8	44.8	44.8	47	25.8	2	4	270	0.00	29.955 
12:10	44.8	44.8	44.8	49	26.8	2	5	292	0.00	29.955 
12:15	44.9	44.9	44.9	43	23.8	3	7	292	0.00	29.954 
12:20	45.2	45.2	45.2	41	22.9	2	10	315	0.00	29.954 
12:25	45.4	45.4	45.4	43	24.2	1	4	292	0.00	29.954 
12:30	45.7	45.7	45.7	43	24.5	2	4	292	0.00	29.952 
12:35	45.7	45.7	45.7	44	25.0	2	5	315	0.00	29.952 
12:40	45.8	45.8	45.8	43	24.6	2	6	270	0.00	29.952 
12:45	45.5	45.5	45.5	43	24.3	2	4	338	0.00	29.952 
12:50	45.4	45.4	45.4	42	23.7	2	5	338	0.00	29.952 
12:55	45.2	45.2	45.2	43	24.0	2	5	338	0.00	29.952 
13:00	45.2	45.2	45.2	43	24.0	2	5	292	0.00	29.941 
13:05	45.2	45.2	45.2	44	24.6	2	4	292	0.00	29.941 
13:10	45.4	45.4	45.4	45	25.3	2	5	270	0.00	29.941 
13:15	46.0	46.0	46.0	43	24.8	3	6	270	0.00	29.949 
13:20	46.2	46.2	46.2	41	23.8	2	5	338	0.00	29.949 
13:25	46.1	46.1	46.1	39	22.5	2	7	315	0.00	29.949 
13:30	46.1	46.1	46.1	41	23.7	2	4	338	0.00	29.951 
13:35	45.8	45.8	45.8	42	24.0	2	6	338	0.00	29.951 
13:40	45.8	45.8	45.8	42	24.0	2	5	338	0.00	29.951 
13:45	46.1	46.1	46.1	45	26.0	2	4	270	0.00	29.954 
13:50	46.4	46.4	46.4	43	25.1	3	7	292	0.00	29.954 
13:55	46.4	46.4	46.4	43	25.1	2	9	338	0.00	29.954 
14:00	46.7	46.7	46.7	42	24.8	3	5	270	0.00	29.964 
14:05	46.8	46.8	46.8	42	24.9	3	6	270	0.00	29.964 
14:10	46.8	46.8	46.8	40	23.8	2	5	338	0.00	29.964 
14:15	46.5	46.5	46.5	38	22.3	2	9	338	0.00	29.962 
14:20	46.5	46.5	46.5	39	22.9	1	4	292	0.00	29.962 
14:25	46.7	46.7	46.7	39	23.1	2	5	270	0.00	29.962 
14:30	46.7	46.7	46.7	39	23.1	2	5	292	0.00	29.964 
14:35	47.0	47.0	47.0	40	23.9	2	6	270	0.00	29.964 
14:40	47.0	47.0	47.0	40	23.9	2	4	270	0.00	29.964 
14:45	46.8	46.8	46.8	39	23.2	3	5	270	0.00	29.965 
14:50	46.8	46.8	46.8	42	24.9	2	5	270	0.00	29.965 
14:55	47.0	47.0	47.0	40	23.9	2	5	270	0.00	29.965 
15:00	47.0	47.0	47.0	38	22.7	2	5	292	0.00	29.972 
15:05	46.7	46.7	46.7	38	22.5	3	6	270	0.00	29.972 
15:10	46.2	46.2	46.2	40	23.2	2	5	338	0.00	29.972 
15:15	46.1	46.1	46.1	40	23.1	3	7	315	0.00	29.979 
15:20	46.1	46.1	46.1	40	23.1	2	5	315	0.00	29.979 
15:25	46.1	46.1	46.1	37	21.3	3	5	338	0.00	29.979 
15:30	45.7	45.7	45.7	36	20.3	2	4	338	0.00	29.985 
15:35	45.5	45.5	45.5	37	20.8	2	5	292	0.00	29.985 
15:40	45.4	45.4	45.4	37	20.7	2	4	292	0.00	29.985 
15:45	45.5	45.5	45.5	41	23.2	3	5	270	0.00	29.994 
15:50	45.1	45.1	45.1	40	22.2	3	5	270	0.00	29.994 
15:55	44.8	44.8	44.8	42	23.1	1	5	338	0.00	29.994 
16:00	44.8	44.8	44.8	43	23.7	1	4	315	0.00	30.001 
16:05	44.6	44.6	44.6	42	22.9	1	5	338	0.00	30.001 
16:10	44.5	44.5	44.5	41	22.3	2	4	338	0.00	30.001 
16:15	44.5	44.5	44.5	42	22.9	2	6	270	0.00	30.008 
16:20	44.2	44.2	44.2	40	21.4	3	6	270	0.00	30.008 
16:25	43.9	43.9	43.9	39	20.6	3	6	270	0.00	30.008 
16:30	43.8	43.8	43.8	40	21.1	2	4	315	0.00	30.013 
16:35	43.3	43.3	43.3	40	20.6	2	5	315	0.00	30.013 
16:40	43.1	43.1	43.1	38	19.2	2	6	292	0.00	30.013 
16:45	42.6	42.6	42.6	38	18.8	2	6	315	0.00	30.019 
16:50	42.2	42.2	42.2	39	19.0	1	3	0	0.00	30.019 
16:55	41.9	41.9	41.9	41	19.9	2	4	338	0.00	30.019 
17:00	41.8	41.8	41.8	43	21.0	1	4	292	0.00	30.030 
17:05	41.6	41.6	41.6	44	21.3	1	3	338	0.00	30.030 
17:10	41.5	41.5	41.5	44	21.2	3	6	270	0.00	30.030 
17:15	41.3	41.3	41.3	43	20.5	2	5	292	0.00	30.040 
17:20	41.2	41.2	41.2	44	21.0	2	5	270	0.00	30.040 
17:25	41.1	41.1	41.1	46	21.9	1	5	315	0.00	30.040 
17:30	40.8	40.8	40.8	47	22.1	2	5	270	0.00	30.051 
17:35	40.5	40.5	40.5	48	22.4	2	5	292	0.00	30.051 
17:40	40.3	40.3	40.3	50	23.2	2	6	315	0.00	30.051 
17:45	40.1	40.1	40.1	49	22.5	2	5	315	0.00	30.063 
17:50	39.9	39.9	39.9	50	22.8	1	4	315	0.00	30.063 
17:55	39.8	39.8	39.8	50	22.7	2	6	270	0.00	30.063 
18:00	39.5	39.5	39.5	51	22.9	3	6	270	0.00	30.071 
18:05	39.3	39.3	39.3	52	23.2	2	5	315	0.00	30.071 
18:10	39.2	39.2	39.2	52	23.1	1	4	270	0.00	30.071 
18:15	38.9	38.9	38.9	52	22.8	3	7	338	0.00	30.082 
18:20	38.8	38.8	38.8	53	23.2	2	5	315	0.00	30.082 
18:25	38.6	38.6	38.6	54	23.4	1	4	292	0.00	30.082 
18:30	38.5	38.5	38.5	54	23.3	1	3	315	0.00	30.086 
18:35	38.3	38.3	38.3	55	23.6	1	4	338	0.00	30.086 
18:40	38.2	38.2	38.2	56	23.9	1	4	315	0.00	30.086 
18:45	38.0	38.0	38.0	56	23.7	2	3	292	0.00	30.098 
18:50	37.9	37.9	37.9	56	23.6	1	4	270	0.00	30.098 
18:55	37.8	37.8	37.8	56	23.5	1	5	315	0.00	30.098 
19:00	37.6	37.6	37.6	56	23.3	1	5	270	0.00	30.107 
19:05	37.3	37.3	37.3	56	23.1	0	3	270	0.00	30.107 
19:10	37.2	37.2	37.2	56	23.0	1	3	248	0.00	30.107 
19:15	37.0	37.0	37.0	57	23.2	1	2	338	0.00	30.113 
19:20	36.9	36.9	36.9	57	23.1	1	3	338	0.00	30.113 
19:25	36.9	36.9	36.9	57	23.1	1	3	338	0.00	30.113 
19:30	36.8	36.8	36.8	57	23.0	0	2	315	0.00	30.112 
19:35	36.6	36.6	36.6	57	22.8	0	2	338	0.00	30.112 
19:40	36.6	36.6	36.6	57	22.8	1	3	338	0.00	30.112 
19:45	36.6	36.6	36.6	57	22.8	1	3	338	0.00	30.111 
19:50	36.6	36.6	36.6	57	22.8	0	2	338	0.00	30.111 
19:55	36.6	36.6	36.6	57	22.8	1	2	338	0.00	30.111 
20:00	36.6	36.6	36.6	57	22.8	0	3	338	0.00	30.107 
20:05	36.6	36.6	36.6	57	22.8	0	2	338	0.00	30.107 
20:10	36.6	36.6	36.6	57	22.8	1	3	338	0.00	30.107 
20:15	36.6	36.6	36.6	58	23.2	0	2	338	0.00	30.103 
20:20	36.6	36.6	36.6	58	23.2	1	4	270	0.00	30.103 
20:25	36.6	36.6	36.6	58	23.2	1	3	315	0.00	30.103 
20:30	36.6	36.6	36.6	58	23.2	0	2	315	0.00	30.102 
20:35	36.5	36.5	36.5	58	23.1	0	1	315	0.00	30.102 
20:40	36.5	36.5	36.5	58	23.1	0	2	315	0.00	30.102 
20:45	36.5	36.5	36.5	58	23.1	0	2	315	0.00	30.100 
20:50	36.5	36.5	36.5	59	23.6	1	4	315	0.00	30.100 
20:55	36.5	36.5	36.5	58	23.1	0	2	315	0.00	30.100 
21:00	36.5	36.5	36.5	59	23.6	0	1	315	0.00	30.100 
21:05	36.5	36.5	36.5	59	23.6	0	1	315	0.00	30.100 
21:10	36.3	36.3	36.3	60	23.8	0	1	315	0.00	30.100 
21:15	36.2	36.2	36.2	60	23.7	0	2	315	0.00	30.104 
21:20	36.2	36.2	36.2	60	23.7	0	2	315	0.00	30.104 
21:25	36.2	36.2	36.2	60	23.7	0	1	315	0.00	30.104 
21:30	36.2	36.2	36.2	60	23.7	0	1	315	0.00	30.103 
21:35	36.0	36.0	36.0	60	23.5	0	1	315	0.00	30.103 
21:40	36.0	36.0	36.0	61	23.9	0	1	315	0.00	30.103 
21:45	36.0	36.0	36.0	61	23.9	0	1	315	0.00	30.102 
21:50	35.9	35.9	35.9	61	23.8	0	1	315	0.00	30.102 
21:55	35.9	35.9	35.9	61	23.8	0	1	315	0.00	30.102 
22:00	35.9	35.9	35.9	62	24.2	0	1	315	0.00	30.103 
22:05	35.8	35.8	35.8	62	24.1	0	1	315	0.00	30.103 
22:10	35.8	35.8	35.8	62	24.1	0	0	---	0.00	30.103 
22:15	35.6	35.6	35.6	62	23.9	0	1	315	0.00	30.103 
22:20	35.6	35.6	35.6	62	23.9	0	1	315	0.00	30.103 
22:25	35.6	35.6	35.6	62	23.9	0	1	315	0.00	30.103 
22:30	35.6	35.6	35.6	63	24.3	0	2	315	0.00	30.103 
22:35	35.6	35.6	35.6	63	24.3	0	2	315	0.00	30.103 
22:40	35.5	35.5	35.5	63	24.2	0	2	315	0.00	30.103 
22:45	35.5	35.5	35.5	63	24.2	0	2	315	0.00	30.104 
22:50	35.5	35.5	35.5	63	24.2	0	2	315	0.00	30.104 
22:55	35.3	35.3	35.3	64	24.4	0	2	315	0.00	30.104 
23:00	35.3	35.3	35.3	63	24.0	1	3	315	0.00	30.104 
23:05	35.3	35.3	35.3	64	24.4	0	1	315	0.00	30.104 
23:10	35.3	35.3	35.3	64	24.4	0	1	315	0.00	30.104 
23:15	35.2	35.2	35.2	64	24.3	0	1	315	0.00	30.104 
23:20	35.2	35.2	35.2	64	24.3	0	1	315	0.00	30.104 
23:25	35.0	35.0	35.0	63	23.7	0	1	315	0.00	30.104 
23:30	35.0	35.0	35.0	63	23.7	0	1	315	0.00	30.104 
23:35	34.9	34.9	34.9	64	24.0	0	0	---	0.00	30.104 
23:40	34.7	34.7	34.7	65	24.2	0	0	---	0.00	30.104 
23:45	34.7	34.7	34.7	65	24.2	0	0	---	0.00	30.105 
23:50	34.6	34.6	34.6	65	24.1	0	0	---	0.00	30.105 
23:55	34.4	34.4	34.4	66	24.2	0	0	---	0.00	30.105 

CoCoRaHS
IN-AL-39
A2 Web Hosting
Creative Commons License
GoDaddy
search engine by freefind advanced

loaded 2018-11-13 22:42:05 • last modified 2010-11-18 10:43:29
Privacy PolicyDisclaimer
• wx.awcolley.com is powered by PmWiki v.2002016 •
• all content (unless otherwise noted) © 2018 A W Colley